Dorchester, Iowa
Current Conditions -  °F | °C
As of 7:55 PM on Sunday 21 Dec 2014 (Local Time) from KDEH Reporting Station
Haze Haze  
Wind Chill: 27°   Ceiling: 500
Heat Index: 36°   Visibility: 2mi
Dew Point: 36°   Wind: 14mph
Humidity: 100%   Direction: 160°SSE
Pressure: 29.83"   Gusts: NA
Location:  43.48°N, 91.51°W
Report Text: KDEH 220155Z AUTO 16012KT 2SM BR OVC005 02/02 A2983 RMK AO2
Loading
Personal Weather Stations






























Interactive Weather Map New forecast layout! Learn more

10-Day Weather Forecast

Advertisements
Track Severe Weather on mobile